createdAt,value
2023-04-01T00:01:53.119Z,99271.81
2023-04-01T00:04:19.762Z,99277.13
2023-04-01T00:06:46.300Z,99276.00
2023-04-01T00:09:12.797Z,99272.13
2023-04-01T00:11:39.677Z,99268.34
2023-04-01T00:14:07.005Z,99276.78
2023-04-01T00:16:34.201Z,99268.34
2023-04-01T00:19:01.248Z,99280.22
2023-04-01T00:21:27.869Z,99283.66
2023-04-01T00:23:54.483Z,99279.44
2023-04-01T00:26:22.972Z,99277.88
2023-04-01T00:28:50.415Z,99289.28
2023-04-01T00:31:17.385Z,99283.50
2023-04-01T00:33:44.637Z,99283.81
2023-04-01T00:36:13.379Z,99286.81
2023-04-01T00:38:40.551Z,99279.94
2023-04-01T00:41:07.487Z,99289.78
2023-04-01T00:43:34.192Z,99282.91
2023-04-01T00:46:01.044Z,99287.44
2023-04-01T00:48:37.678Z,99293.53
2023-04-01T00:54:05.600Z,99288.56
2023-04-01T00:56:36.687Z,99290.09
2023-04-01T00:59:09.193Z,99290.88
2023-04-01T01:01:37.192Z,99295.72
2023-04-01T01:04:04.606Z,99295.72
2023-04-01T01:06:51.189Z,99291.84
2023-04-01T01:09:26.756Z,99301.22
2023-04-01T01:12:08.303Z,99297.34
2023-04-01T01:14:37.430Z,99298.09
2023-04-01T01:17:31.419Z,99298.09
2023-04-01T01:20:25.971Z,99309.81
2023-04-01T01:23:22.111Z,99306.38
2023-04-01T01:26:27.432Z,99303.41
2023-04-01T01:29:15.744Z,99305.91
2023-04-01T01:32:12.519Z,99305.47
2023-04-01T01:35:10.290Z,99308.88
2023-04-01T01:37:39.364Z,99316.22
2023-04-01T01:40:09.443Z,99314.34
2023-04-01T01:42:40.797Z,99307.03
2023-04-01T01:45:09.852Z,99304.69
2023-04-01T01:47:37.822Z,99318.28
2023-04-01T01:50:06.038Z,99318.59
2023-04-01T01:52:32.815Z,99323.13
2023-04-01T01:54:59.527Z,99315.81
2023-04-01T01:57:37.968Z,99311.56
2023-04-01T02:00:14.511Z,99316.75
2023-04-01T02:02:45.156Z,99326.56
2023-04-01T02:05:20.612Z,99317.06
2023-04-01T02:07:53.093Z,99320.50
2023-04-01T02:10:22.274Z,99324.56
2023-04-01T02:12:50.290Z,99324.88
2023-04-01T02:15:17.942Z,99332.84
2023-04-01T02:17:47.081Z,99328.19
2023-04-01T02:20:21.759Z,99335.69
2023-04-01T02:22:52.371Z,99328.03
2023-04-01T02:25:24.622Z,99334.88
2023-04-01T02:27:51.272Z,99335.97
2023-04-01T02:30:18.789Z,99332.09
2023-04-01T02:32:46.663Z,99338.94
2023-04-01T02:35:16.614Z,99337.25
2023-04-01T02:37:44.615Z,99342.38
2023-04-01T02:40:15.745Z,99341.63
2023-04-01T02:42:42.563Z,99336.63
2023-04-01T02:45:09.885Z,99340.69
2023-04-01T02:47:36.465Z,99339.13
2023-04-01T02:50:03.450Z,99355.06
2023-04-01T02:52:30.747Z,99352.41
2023-04-01T02:54:58.149Z,99343.97
2023-04-01T02:57:25.957Z,99348.81
2023-04-01T02:59:52.591Z,99351.78
2023-04-01T03:02:19.130Z,99350.66
2023-04-01T03:04:46.023Z,99349.91
2023-04-01T03:07:12.568Z,99351.78
2023-04-01T03:09:39.830Z,99348.34
2023-04-01T03:12:07.374Z,99360.03
2023-04-01T03:14:34.154Z,99368.31
2023-04-01T03:17:01.539Z,99359.59
2023-04-01T03:19:28.744Z,99363.00
2023-04-01T03:21:55.586Z,99367.53
2023-04-01T03:24:22.381Z,99371.31
2023-04-01T03:26:49.443Z,99372.38
2023-04-01T03:29:16.898Z,99380.97
2023-04-01T03:31:43.836Z,99376.75
2023-04-01T03:34:10.861Z,99385.00
2023-04-01T03:36:37.626Z,99381.88
2023-04-01T03:39:04.851Z,99386.41
2023-04-01T03:41:31.865Z,99389.06
2023-04-01T03:43:58.491Z,99385.66
2023-04-01T03:46:25.545Z,99395.16
2023-04-01T03:48:52.387Z,99396.56
2023-04-01T03:51:19.012Z,99393.13
2023-04-01T03:53:46.297Z,99393.44
2023-04-01T03:56:12.778Z,99405.63
2023-04-01T03:58:40.059Z,99404.81
2023-04-01T04:01:24.478Z,99411.72
2023-04-01T04:03:51.894Z,99406.41
2023-04-01T04:06:20.277Z,99412.47
2023-04-01T04:08:47.710Z,99410.59
2023-04-01T04:11:15.704Z,99411.72
2023-04-01T04:13:42.755Z,99417.00
2023-04-01T04:16:10.781Z,99420.91
2023-04-01T04:18:38.367Z,99435.28
2023-04-01T04:21:05.258Z,99426.22
2023-04-01T04:23:34.519Z,99433.09
2023-04-01T04:26:06.452Z,99433.88
2023-04-01T04:28:33.618Z,99436.81
2023-04-01T04:31:00.985Z,99439.47
2023-04-01T04:33:28.452Z,99440.25
2023-04-01T04:35:59.337Z,99446.34
2023-04-01T04:38:26.487Z,99450.56
2023-04-01T04:40:53.063Z,99453.22
2023-04-01T04:43:20.544Z,99464.59
2023-04-01T04:45:47.334Z,99465.41
2023-04-01T04:48:19.998Z,99466.16
2023-04-01T04:50:50.759Z,99469.13
2023-04-01T04:53:18.838Z,99480.50
2023-04-01T04:55:50.552Z,99474.59
2023-04-01T04:58:17.835Z,99490.81
2023-04-01T05:00:44.968Z,99490.81
2023-04-01T05:03:12.279Z,99498.47
2023-04-01T05:05:39.166Z,99501.59
2023-04-01T05:08:06.592Z,99501.59
2023-04-01T05:10:33.227Z,99502.38
2023-04-01T05:12:59.762Z,99513.00
2023-04-01T05:15:26.460Z,99519.06
2023-04-01T05:17:53.081Z,99513.16
2023-04-01T05:20:19.836Z,99520.19
2023-04-01T05:22:46.558Z,99529.06
2023-04-01T05:25:13.255Z,99526.72
2023-04-01T05:27:40.017Z,99528.31
2023-04-01T05:30:07.387Z,99540.94
2023-04-01T05:32:34.115Z,99544.22
2023-04-01T05:35:00.786Z,99541.56
2023-04-01T05:37:27.363Z,99543.13
2023-04-01T05:39:53.822Z,99550.31
2023-04-01T05:42:25.746Z,99554.84
2023-04-01T05:44:52.355Z,99559.81
2023-04-01T05:47:18.916Z,99564.03
2023-04-01T05:49:45.787Z,99574.97
2023-04-01T05:53:16.889Z,99569.34
2023-04-01T05:55:50.804Z,99576.53
2023-04-01T05:58:17.334Z,99573.56
2023-04-01T06:03:38.591Z,99577.00
2023-04-01T06:06:14.704Z,99584.16
2023-04-01T06:08:41.398Z,99592.59
2023-04-01T06:11:27.438Z,99594.19
2023-04-01T06:14:24.609Z,99597.13
2023-04-01T06:17:22.982Z,99604.03
2023-04-01T06:20:12.124Z,99608.53
2023-04-01T06:22:50.846Z,99613.81
2023-04-01T06:25:41.798Z,99606.66
2023-04-01T06:28:44.790Z,99615.41
2023-04-01T06:31:19.434Z,99621.00
2023-04-01T06:33:59.964Z,99631.03
2023-04-01T06:36:48.596Z,99627.75
2023-04-01T06:39:43.850Z,99628.06
2023-04-01T06:42:19.797Z,99640.91
2023-04-01T06:44:46.362Z,99646.06
2023-04-01T06:47:15.990Z,99649.22
2023-04-01T06:49:56.483Z,99657.66
2023-04-01T06:52:32.394Z,99657.81
2023-04-01T06:55:10.592Z,99661.44
2023-04-01T06:57:45.042Z,99668.16
2023-04-01T07:00:31.607Z,99667.22
2023-04-01T07:03:20.832Z,99676.47
2023-04-01T07:05:47.660Z,99676.94
2023-04-01T07:08:21.543Z,99679.72
2023-04-01T07:11:06.310Z,99688.50
2023-04-01T07:13:46.083Z,99691.16
2023-04-01T07:16:41.043Z,99703.53
2023-04-01T07:19:18.186Z,99700.59
2023-04-01T07:21:50.150Z,99707.44
2023-04-01T07:24:28.410Z,99706.06
2023-04-01T07:26:57.486Z,99708.09
2023-04-01T07:29:24.612Z,99719.97
2023-04-01T07:32:12.947Z,99718.25
2023-04-01T07:34:56.501Z,99724.19
2023-04-01T07:37:50.369Z,99737.63
2023-04-01T07:40:35.785Z,99730.47
2023-04-01T07:43:19.992Z,99737.50
2023-04-01T07:45:52.830Z,99741.22
2023-04-01T07:48:27.230Z,99746.25
2023-04-01T07:51:08.423Z,99752.34
2023-04-01T07:53:44.771Z,99751.56
2023-04-01T07:56:20.109Z,99752.34
2023-04-01T07:59:19.523Z,99762.53
2023-04-01T08:01:51.810Z,99772.22
2023-04-01T08:04:27.368Z,99773.00
2023-04-01T08:07:21.613Z,99781.91
2023-04-01T08:10:14.506Z,99784.09
2023-04-01T08:13:05.470Z,99784.22
2023-04-01T08:15:48.113Z,99788.00
2023-04-01T08:18:30.163Z,99798.63
2023-04-01T08:20:59.960Z,99801.59
2023-04-01T08:23:34.139Z,99801.00
2023-04-01T08:26:11.211Z,99812.75
2023-04-01T08:28:45.899Z,99818.06
2023-04-01T08:31:38.951Z,99824.00
2023-04-01T08:34:14.543Z,99814.94
2023-04-01T08:36:47.888Z,99828.53
2023-04-01T08:39:19.656Z,99827.59
2023-04-01T08:41:58.995Z,99845.44
2023-04-01T08:45:02.920Z,99841.81
2023-04-01T08:47:51.386Z,99844.66
2023-04-01T08:50:35.303Z,99844.19
2023-04-01T08:53:12.988Z,99854.50
2023-04-01T08:56:04.405Z,99849.63
2023-04-01T08:58:55.189Z,99854.81
2023-04-01T09:01:44.376Z,99869.38
2023-04-01T09:04:55.814Z,99868.13
2023-04-01T09:07:34.386Z,99865.16
2023-04-01T09:10:24.709Z,99876.75
2023-04-01T09:12:56.297Z,99878.16
2023-04-01T09:15:53.466Z,99879.72
2023-04-01T09:18:50.533Z,99882.84
2023-04-01T09:21:41.819Z,99884.91
2023-04-01T09:24:34.309Z,99891.59
2023-04-01T09:27:05.902Z,99898.03
2023-04-01T09:29:57.495Z,99898.03
2023-04-01T09:32:49.811Z,99895.53
2023-04-01T09:35:46.705Z,99899.75
2023-04-01T09:38:21.426Z,99899.59
2023-04-01T09:41:19.133Z,99903.06
2023-04-01T09:43:57.769Z,99913.38
2023-04-01T09:47:02.152Z,99916.66
2023-04-01T09:49:50.085Z,99925.13
2023-04-01T09:52:46.623Z,99920.88
2023-04-01T09:55:13.287Z,99922.44
2023-04-01T09:57:55.219Z,99923.84
2023-04-01T10:00:47.491Z,99927.31
2023-04-01T10:04:02.499Z,99931.34
2023-04-01T10:06:52.629Z,99935.25
2023-04-01T10:09:40.538Z,99934.38
2023-04-01T10:12:43.885Z,99935.88
2023-04-01T10:15:32.351Z,99943.00
2023-04-01T10:18:12.863Z,99934.78
2023-04-01T10:20:45.607Z,99950.00
2023-04-01T10:23:12.716Z,99951.13
2023-04-01T10:25:46.479Z,99950.72
2023-04-01T10:28:29.251Z,99951.56
2023-04-01T10:31:41.139Z,99957.28
2023-04-01T10:34:26.413Z,99951.94
2023-04-01T10:36:55.104Z,99966.53
2023-04-01T10:39:36.455Z,99969.69
2023-04-01T10:42:21.626Z,99964.50
2023-04-01T10:45:19.096Z,99967.94
2023-04-01T10:47:51.913Z,99970.75
2023-04-01T10:50:21.236Z,99966.88
2023-04-01T10:53:52.523Z,99977.38
2023-04-01T10:56:57.835Z,99983.63
2023-04-01T10:59:45.928Z,99988.47
2023-04-01T11:02:37.792Z,99987.16
2023-04-01T11:05:23.116Z,99979.63
2023-04-01T11:08:07.062Z,99988.53
2023-04-01T11:14:47.194Z,99993.09
2023-04-01T11:17:27.960Z,99996.00
2023-04-01T11:20:14.395Z,100004.34
2023-04-01T11:26:46.870Z,100010.31
2023-04-01T11:29:13.396Z,100006.41
2023-04-01T11:35:15.958Z,100024.28
2023-04-01T11:37:56.971Z,100027.06
2023-04-01T11:40:52.926Z,100029.56
2023-04-01T11:43:47.261Z,100033.94
2023-04-01T11:46:25.794Z,100037.75
2023-04-01T11:49:14.593Z,100045.91
2023-04-01T11:51:49.863Z,100049.03
2023-04-01T11:54:40.718Z,100055.63
2023-04-01T11:57:30.244Z,100058.16
2023-04-01T12:00:03.433Z,100061.47
2023-04-01T12:02:49.106Z,100067.72
2023-04-01T12:05:33.876Z,100069.13
2023-04-01T12:08:09.404Z,100068.34
2023-04-01T12:10:46.164Z,100070.69
2023-04-01T12:13:29.563Z,100076.50
2023-04-01T12:16:17.428Z,100076.19
2023-04-01T12:18:53.582Z,100081.03
2023-04-01T12:21:39.547Z,100083.84
2023-04-01T12:24:37.680Z,100087.16
2023-04-01T12:27:26.232Z,100088.41
2023-04-01T12:30:00.889Z,100098.13
2023-04-01T12:32:47.219Z,100098.13
2023-04-01T12:35:30.743Z,100100.31
2023-04-01T12:38:07.042Z,100106.72
2023-04-01T12:40:55.931Z,100116.59
2023-04-01T12:43:53.385Z,100114.28
2023-04-01T12:46:58.301Z,100110.84
2023-04-01T12:49:50.876Z,100122.75
2023-04-01T12:52:44.725Z,100113.97
2023-04-01T12:55:36.219Z,100116.94
2023-04-01T12:58:41.182Z,100132.91
2023-04-01T13:01:26.472Z,100125.72
2023-04-01T13:04:36.041Z,100130.41
2023-04-01T13:07:21.124Z,100133.22
2023-04-01T13:10:15.890Z,100131.22
2023-04-01T13:16:02.716Z,100144.69
2023-04-01T13:18:41.405Z,100148.31
2023-04-01T13:21:27.532Z,100157.56
2023-04-01T13:23:59.514Z,100163.03
2023-04-01T13:26:36.833Z,100160.53
2023-04-01T13:29:12.954Z,100173.53
2023-04-01T13:32:07.622Z,100175.00
2023-04-01T13:34:48.889Z,100179.09
2023-04-01T13:37:46.277Z,100178.13
2023-04-01T13:40:27.299Z,100180.31
2023-04-01T13:43:20.125Z,100180.19
2023-04-01T13:46:25.296Z,100184.56
2023-04-01T13:49:31.332Z,100189.13
2023-04-01T13:52:26.570Z,100194.59
2023-04-01T13:55:20.601Z,100194.59
2023-04-01T13:57:56.321Z,100199.63
2023-04-01T14:00:41.437Z,100200.41
2023-04-01T14:03:21.385Z,100203.81
2023-04-01T14:06:15.259Z,100213.50
2023-04-01T14:09:06.339Z,100216.47
2023-04-01T14:11:47.995Z,100221.06
2023-04-01T14:14:43.329Z,100238.31
2023-04-01T14:17:36.918Z,100239.00
2023-04-01T14:20:28.930Z,100242.28
2023-04-01T14:23:26.874Z,100249.47
2023-04-01T14:26:05.119Z,100255.63
2023-04-01T14:28:55.467Z,100259.25
2023-04-01T14:31:35.674Z,100269.13
2023-04-01T14:34:17.321Z,100272.31
2023-04-01T14:36:46.875Z,100267.97
2023-04-01T14:39:51.430Z,100275.66
2023-04-01T14:42:55.408Z,100279.44
2023-04-01T14:45:37.180Z,100291.63
2023-04-01T14:48:14.911Z,100288.84
2023-04-01T14:50:45.736Z,100297.31
2023-04-01T14:53:30.598Z,100305.78
2023-04-01T14:56:03.716Z,100312.69
2023-04-01T14:58:42.409Z,100316.44
2023-04-01T15:01:43.422Z,100315.16
2023-04-01T15:04:21.563Z,100327.66
2023-04-01T15:06:56.995Z,100331.00
2023-04-01T15:09:30.197Z,100341.16
2023-04-01T15:12:18.371Z,100339.41
2023-04-01T15:14:47.863Z,100346.00
2023-04-01T15:17:22.403Z,100349.56
2023-04-01T15:20:14.512Z,100361.06
2023-04-01T15:22:53.193Z,100361.84
2023-04-01T15:25:22.587Z,100361.97
2023-04-01T15:28:08.271Z,100369.25
2023-04-01T15:30:50.380Z,100377.50
2023-04-01T15:36:42.558Z,100382.53
2023-04-01T15:39:09.120Z,100393.97
2023-04-01T15:42:11.409Z,100394.94
2023-04-01T15:44:53.796Z,100404.91
2023-04-01T15:47:34.843Z,100410.44
2023-04-01T15:50:13.388Z,100413.09
2023-04-01T15:53:02.809Z,100418.13
2023-04-01T15:55:38.801Z,100421.06
2023-04-01T15:58:25.209Z,100430.75
2023-04-01T16:01:22.818Z,100439.72
2023-04-01T16:04:14.433Z,100443.28
2023-04-01T16:06:55.613Z,100449.22
2023-04-01T16:09:43.961Z,100455.69
2023-04-01T16:12:19.392Z,100463.75
2023-04-01T16:14:55.468Z,100462.97
2023-04-01T16:17:56.145Z,100471.72
2023-04-01T16:24:02.196Z,100484.09
2023-04-01T16:26:31.872Z,100484.19
2023-04-01T16:29:16.552Z,100489.72
2023-04-01T16:31:54.867Z,100499.44
2023-04-01T16:34:44.537Z,100503.50
2023-04-01T16:37:30.598Z,100506.56
2023-04-01T16:40:11.425Z,100511.28
2023-04-01T16:43:06.958Z,100518.38
2023-04-01T16:48:53.831Z,100541.22
2023-04-01T16:51:37.587Z,100539.88
2023-04-01T16:54:14.207Z,100543.69
2023-04-01T16:56:48.977Z,100538.28
2023-04-01T16:59:28.342Z,100554.25
2023-04-01T17:02:05.972Z,100569.72
2023-04-01T17:04:40.456Z,100564.38
2023-04-01T17:07:20.802Z,100571.06
2023-04-01T17:09:53.360Z,100586.69
2023-04-01T17:12:36.645Z,100596.25
2023-04-01T17:15:28.020Z,100601.09
2023-04-01T17:18:11.924Z,100606.31
2023-04-01T17:20:51.272Z,100614.88
2023-04-01T17:23:38.999Z,100616.94
2023-04-01T17:26:20.983Z,100638.16
2023-04-01T17:28:57.605Z,100632.59
2023-04-01T17:31:26.999Z,100629.38
2023-04-01T17:34:03.117Z,100643.19
2023-04-01T17:36:43.752Z,100640.53
2023-04-01T17:39:34.320Z,100652.66
2023-04-01T17:42:11.031Z,100661.06
2023-04-01T17:45:05.515Z,100667.13
2023-04-01T17:47:57.266Z,100677.75
2023-04-01T17:50:23.969Z,100685.72
2023-04-01T17:53:15.872Z,100695.06
2023-04-01T17:56:08.009Z,100707.00
2023-04-01T17:58:48.387Z,100705.13
2023-04-01T18:01:15.216Z,100704.25
2023-04-01T18:04:02.890Z,100720.38
2023-04-01T18:06:44.405Z,100719.81
2023-04-01T18:09:30.509Z,100735.78
2023-04-01T18:12:34.733Z,100741.59
2023-04-01T18:15:37.870Z,100745.81
2023-04-01T18:18:41.753Z,100762.00
2023-04-01T18:21:20.747Z,100759.88
2023-04-01T18:24:13.961Z,100760.19
2023-04-01T18:26:45.122Z,100772.50
2023-04-01T18:29:28.968Z,100780.78
2023-04-01T18:32:09.471Z,100791.88
2023-04-01T18:35:10.310Z,100790.59
2023-04-01T18:37:52.163Z,100804.94
2023-04-01T18:40:37.002Z,100808.19
2023-04-01T18:43:12.942Z,100815.06
2023-04-01T18:45:55.667Z,100827.00
2023-04-01T18:48:27.931Z,100832.25
2023-04-01T18:51:04.295Z,100837.47
2023-04-01T18:53:40.973Z,100840.38
2023-04-01T18:56:16.559Z,100841.41
2023-04-01T18:59:16.579Z,100853.94
2023-04-01T19:02:03.928Z,100859.25
2023-04-01T19:04:58.648Z,100865.69
2023-04-01T19:07:37.902Z,100875.84
2023-04-01T19:10:15.142Z,100880.94
2023-04-01T19:12:47.502Z,100883.34
2023-04-01T19:15:14.202Z,100890.81
2023-04-01T19:18:14.553Z,100893.72
2023-04-01T19:20:48.650Z,100900.03
2023-04-01T19:23:29.668Z,100908.56
2023-04-01T19:26:00.648Z,100919.53
2023-04-01T19:28:51.259Z,100920.13
2023-04-01T19:31:29.773Z,100936.09
2023-04-01T19:34:15.130Z,100930.75
2023-04-01T19:36:54.620Z,100951.16
2023-04-01T19:39:58.391Z,100950.69
2023-04-01T19:42:45.017Z,100950.97
2023-04-01T19:45:27.928Z,100957.91
2023-04-01T19:48:16.115Z,100957.06
2023-04-01T19:50:52.777Z,100965.28
2023-04-01T19:53:36.983Z,100973.78
2023-04-01T19:56:18.654Z,100972.22
2023-04-01T19:59:12.797Z,100987.91
2023-04-01T20:01:49.710Z,100999.94
2023-04-01T20:04:27.083Z,101005.28
2023-04-01T20:07:01.208Z,101005.94
2023-04-01T20:09:36.685Z,101012.09
2023-04-01T20:12:24.929Z,101024.13
2023-04-01T20:14:56.147Z,101031.09
2023-04-01T20:17:25.963Z,101027.91
2023-04-01T20:19:56.829Z,101034.59
2023-04-01T20:23:00.921Z,101047.63
2023-04-01T20:25:30.613Z,101042.88
2023-04-01T20:28:03.120Z,101057.75
2023-04-01T20:30:47.927Z,101060.66
2023-04-01T20:33:33.459Z,101068.09
2023-04-01T20:36:28.304Z,101070.22
2023-04-01T20:39:22.608Z,101075.59
2023-04-01T20:42:13.616Z,101089.66
2023-04-01T20:45:18.253Z,101096.28
2023-04-01T20:48:14.757Z,101106.38
2023-04-01T20:51:05.031Z,101112.72
2023-04-01T20:53:45.116Z,101114.84
2023-04-01T20:56:17.620Z,101120.66
2023-04-01T20:58:53.178Z,101122.78
2023-04-01T21:01:38.128Z,101126.22
2023-04-01T21:04:29.555Z,101132.84
2023-04-01T21:07:32.994Z,101143.47
2023-04-01T21:10:38.386Z,101151.16
2023-04-01T21:13:27.125Z,101155.13
2023-04-01T21:16:01.396Z,101155.91
2023-04-01T21:19:00.525Z,101159.31
2023-04-01T21:21:48.257Z,101170.66
2023-04-01T21:24:14.855Z,101174.88
2023-04-01T21:27:10.515Z,101185.72
2023-04-01T21:29:47.154Z,101190.19
2023-04-01T21:32:37.045Z,101206.34
2023-04-01T21:35:21.873Z,101215.06
2023-04-01T21:38:09.020Z,101220.88
2023-04-01T21:40:59.920Z,101220.03
2023-04-01T21:43:38.388Z,101232.50
2023-04-01T21:46:04.898Z,101234.59
2023-04-01T21:48:46.839Z,101240.41
2023-04-01T21:52:18.209Z,101240.41
2023-04-01T21:55:22.079Z,101252.28
2023-04-01T21:58:21.243Z,101260.50
2023-04-01T22:01:11.403Z,101257.81
2023-04-01T22:04:24.890Z,101258.59
2023-04-01T22:06:56.675Z,101264.72
2023-04-01T22:09:40.821Z,101278.75
2023-04-01T22:12:25.197Z,101275.25
2023-04-01T22:15:10.355Z,101278.91
2023-04-01T22:17:47.697Z,101285.81
2023-04-01T22:20:53.996Z,101305.13
2023-04-01T22:23:36.469Z,101304.06
2023-04-01T22:26:36.371Z,101306.41
2023-04-01T22:29:02.870Z,101307.47
2023-04-01T22:31:42.698Z,101313.53
2023-04-01T22:34:16.085Z,101317.44
2023-04-01T22:37:10.995Z,101322.19
2023-04-01T22:39:51.747Z,101328.03
2023-04-01T22:42:24.504Z,101336.47
2023-04-01T22:45:21.932Z,101334.31
2023-04-01T22:48:16.964Z,101347.28
2023-04-01T22:50:48.748Z,101347.50
2023-04-01T22:53:30.918Z,101358.78
2023-04-01T22:56:02.982Z,101354.03
2023-04-01T22:58:36.778Z,101358.25
2023-04-01T23:01:11.985Z,101355.31
2023-04-01T23:03:50.029Z,101373.28
2023-04-01T23:06:23.145Z,101383.56
2023-04-01T23:09:18.179Z,101374.56
2023-04-01T23:11:54.244Z,101384.31
2023-04-01T23:14:27.821Z,101387.19
2023-04-01T23:17:03.862Z,101387.44
2023-04-01T23:19:57.596Z,101395.88
2023-04-01T23:22:33.252Z,101399.31
2023-04-01T23:25:06.677Z,101408.81
2023-04-01T23:27:48.603Z,101411.47
2023-04-01T23:30:39.931Z,101418.38
2023-04-01T23:33:33.430Z,101418.38
2023-04-01T23:36:12.681Z,101433.19
2023-04-01T23:38:43.019Z,101434.91
2023-04-01T23:41:21.544Z,101450.97
2023-04-01T23:44:01.284Z,101432.41
2023-04-01T23:46:30.047Z,101434.66
2023-04-01T23:48:57.024Z,101444.19
2023-04-01T23:51:27.570Z,101445.53
2023-04-01T23:54:05.667Z,101450.59
2023-04-01T23:56:40.648Z,101460.84
2023-04-01T23:59:19.672Z,101459.81
